x

9442396 - La Push, Wa (lapw1) Weather Station

1:30am - Thu 18th Sep 2014 All times are PDT. -7 hours from GMT.

  • Wind
  • Sea Temp 60°f
  • Air Temp 58°f
  • Sea Pressure 1006.9mb
  • 9442396 - La Push, Wa
  • 9442396 - La Push, Wa

More Historic Weather Station data

Upgrade to MSW Pro to gain access to the past 30 days of data for over 8000 Wavebouys and Weather Stations around the globe.

Join Pro

Comparision Forecast

View Surf forecast
   
Thu 09/18 1:30am  -  1 mph 1006.9mb 60f 58f
1:24am 2 3 mph 1007mb 60f 58f
1:18am 2 3 mph 1007mb 60f 58f
1:12am 3 5 mph 1007mb 60f 59f
1:06am 3 6 mph 1007mb 60f 59f
1:00am 3 5 mph 1007mb 60f 58f
12:36am 2 3 mph 1006.9mb 60f 58f
12:30am 1 2 mph 1006.8mb 60f 58f
12:24am  -  1 mph 1006.8mb 60f 58f
12:18am  -  1 mph 1006.7mb 60f 58f
12:12am  -  2 mph 1006.7mb 60f 58f
12:06am 1 2 mph 1006.7mb 60f 58f
12:00am 2
mph
1006.7mb 60f 58f
Wed 09/17 11:36pm  -  1 mph 1006.6mb 60f 58f
11:30pm 2
mph
1006.5mb 60f 58f
11:24pm 2 3 mph 1006.5mb 60f 58f
11:18pm 2
mph
1006.4mb 60f 58f
11:12pm  -  2 mph 1006.5mb 60f 58f
11:06pm 2 3 mph 1006.4mb 60f 58f
11:00pm 1 3 mph 1006.5mb 60f 58f
10:36pm 1 2 mph 1006.7mb 60f 58f
10:30pm 1 2 mph 1006.8mb 60f 58f
10:24pm 2
mph
1006.9mb 60f 58f
10:18pm 2
mph
1006.8mb 60f 58f
10:12pm 1 2 mph 1006.9mb 60f 59f
10:06pm  -  1 mph 1007mb 60f 59f
10:00pm  -  2 mph 1007mb 60f 59f
9:36pm 2 3 mph 1007.3mb 60f 59f
9:30pm 3
mph
1007.3mb 60f 59f
9:24pm 3
mph
1007.3mb 60f 59f
9:18pm 3 5 mph 1007.3mb 60f 59f
9:12pm 3 5 mph 1007.4mb 60f 59f
9:06pm 3
mph
1007.4mb 60f 59f
9:00pm 2
mph
1007.4mb 60f 59f
8:36pm 2 3 mph 1007.1mb 60f 59f
8:30pm 2 3 mph 1007.1mb 60f 59f
8:24pm 3 6 mph 1007.1mb 60f 59f
8:18pm 5
mph
1007.2mb 60f 59f
8:12pm 5
mph
1007.2mb 60f 59f
8:06pm 3 5 mph 1007.4mb 60f 59f
8:00pm 3
mph
1007.3mb 60f 60f
7:36pm 5 6 mph 1006.9mb 60f 60f
7:30pm 5 6 mph 1006.9mb 60f 60f
7:24pm 3 5 mph 1006.9mb 60f 60f
7:18pm 5
mph
1006.8mb 60f 60f
7:12pm 5 6 mph 1006.8mb 60f 60f
7:06pm 5 6 mph 1006.8mb 60f 60f
7:00pm 5 6 mph 1006.7mb 60f 59f
6:36pm 7 10 mph 1006.8mb 60f 59f
6:30pm 9 11 mph 1006.8mb 60f 59f
6:24pm 10 11 mph 1006.7mb 60f 59f
6:18pm 10 13 mph 1006.7mb 60f 59f
6:12pm 10 13 mph 1006.6mb 60f 59f
6:06pm 11 14 mph 1006.5mb 60f 59f
6:00pm 11 14 mph 1006.4mb 60f 59f
5:36pm 11 14 mph 1006.6mb 60f 60f
5:30pm 10 13 mph 1006.4mb 60f 60f
5:24pm 10 14 mph 1006.4mb 60f 60f
5:18pm 13 14 mph 1006.4mb 60f 60f
5:12pm 14 15 mph 1006.5mb 60f 60f
5:06pm 13 14 mph 1006.6mb 60f 60f
5:00pm 11 14 mph 1006.7mb 60f 60f
4:36pm 7 10 mph 1006.8mb 60f 60f
4:30pm 8 10 mph 1006.8mb 60f 60f
4:24pm 8 13 mph 1006.7mb 60f 60f
4:18pm 11 14 mph 1006.8mb 60f 60f
4:12pm 11 14 mph 1006.7mb 60f 60f
4:06pm 11 14 mph 1006.7mb 60f 60f
4:00pm 13 14 mph 1006.8mb 60f 60f
3:36pm 10 13 mph 1006.6mb 60f 60f
3:30pm 8 11 mph 1006.7mb 60f 60f
3:24pm 9 11 mph 1006.8mb 60f 60f
3:18pm 10 14 mph 1006.6mb 60f 60f
3:12pm 11 14 mph 1006.5mb 60f 60f
3:06pm 13 14 mph 1006.5mb 60f 61f
3:00pm 9 11 mph 1006.6mb 60f 61f
2:36pm 10 11 mph 1006.5mb 60f 60f
2:30pm 10 13 mph 1006.6mb 60f 60f
2:24pm 9 11 mph 1006.8mb 60f 60f
2:18pm 7 9 mph 1007mb 60f 60f
2:12pm 8 9 mph 1007mb 60f 60f
2:06pm 8 9 mph 1006.9mb 60f 60f
2:00pm 7 8 mph 1007mb 60f 60f
1:36pm 8 9 mph 1007.3mb 60f 60f
1:30pm 8 9 mph 1007.2mb 60f 60f
1:24pm 8 9 mph 1007.1mb 60f 60f
1:18pm 9
mph
1006.9mb 60f 61f
1:12pm 6 7 mph 1007mb 60f 61f
1:06pm 6 7 mph 1006.9mb 60f 61f
1:00pm 6 7 mph 1006.7mb 59f 61f
12:36pm 7 8 mph 1007.1mb 59f 60f
12:30pm 6 7 mph 1007.5mb 60f 60f
12:24pm 6
mph
1007.7mb 60f 60f
12:18pm 5 6 mph 1007.9mb 60f 60f
12:12pm 5
mph
1008mb 60f 60f
12:06pm 5
mph
1008mb 60f 60f
12:00pm 5
mph
1008.1mb 60f 60f
11:36am 3
mph
1008.2mb 60f 60f
11:30am 3 5 mph 1008.2mb 60f 61f
11:24am 1 2 mph 1008.2mb 60f 61f
11:18am 1 2 mph 1008.3mb 60f 60f
11:12am 1 3 mph 1008.3mb 60f 60f
11:06am 1 2 mph 1008.3mb 60f 60f
11:00am  -  3 mph 1008.3mb 60f 60f
10:36am 3 6 mph 1008.2mb 60f 59f
10:30am 5 6 mph 1008.2mb 60f 59f
10:24am 3 6 mph 1008.2mb 60f 59f
10:18am 6 7 mph 1008.1mb 59f 58f
10:12am 6 7 mph 1008.1mb 59f 58f
10:06am 5 6 mph 1008.2mb 59f 58f
10:00am 5 6 mph 1008.1mb 59f 58f
9:36am 6 8 mph 1008.2mb 59f 57f
9:30am 6 7 mph 1008.2mb 59f 57f
9:24am 6 8 mph 1008.1mb 59f 57f
9:18am 6 8 mph 1008.1mb 59f 57f
9:12am 7 8 mph 1008.1mb 59f 57f
9:06am 7 8 mph 1008.1mb 59f 56f
9:00am 6 8 mph 1008.1mb 59f 56f
8:36am 6 7 mph 1008.1mb 59f 56f
8:30am 6 7 mph 1008.1mb 59f 56f
8:24am 6 7 mph 1008.2mb 59f 56f
8:18am 5 6 mph 1008.2mb 59f 56f
8:12am 5 6 mph 1008.2mb 59f 56f
8:06am 3 6 mph 1008.2mb 59f 56f
8:00am 3 6 mph 1008.3mb 59f 56f
7:36am 6 7 mph 1008.2mb 59f 55f
7:30am 5 7 mph 1008.3mb 59f 55f
7:24am 6 7 mph 1008.2mb 60f 55f
7:18am 6 8 mph 1008mb 60f 55f
7:12am 6 8 mph 1008mb 60f 55f
7:06am 7 8 mph 1007.9mb 60f 55f
7:00am 6 7 mph 1007.9mb 60f 55f
6:36am 7 8 mph 1007.9mb 60f 56f
6:30am 6 8 mph 1008.1mb 59f 56f
6:24am 5 7 mph 1008mb 60f 56f
6:18am 6 8 mph 1008mb 60f 56f
6:12am 6 7 mph 1008mb 59f 56f
6:06am 6
mph
1008mb 60f 56f
6:00am 5 6 mph 1008mb 60f 56f
5:36am 3 5 mph 1008.2mb 60f 56f
5:30am 3 5 mph 1008.3mb 60f 56f
5:24am 1 6 mph 1008.2mb 60f 56f
5:18am 5 6 mph 1008.3mb 60f 56f
5:12am 5 6 mph 1008.2mb 60f 56f
5:06am 5 6 mph 1008mb 60f 56f
5:00am 5 6 mph 1008mb 60f 56f
4:36am 6
mph
1008.3mb 60f 57f
4:30am 5 7 mph 1008.4mb 60f 57f
4:24am 5 7 mph 1008.4mb 60f 57f
4:18am 6 7 mph 1008.4mb 60f 57f
4:12am 6
mph
1008.5mb 60f 57f
4:06am 5 6 mph 1008.7mb 60f 57f
4:00am 5 6 mph 1008.9mb 60f 57f
3:36am 5
mph
1009.3mb 60f 57f
3:30am 5 6 mph 1009.2mb 60f 57f
3:24am 5
mph
1009.3mb 60f 57f
3:18am 5
mph
1009.3mb 60f 58f
3:12am 3 5 mph 1009.4mb 60f 58f
3:06am 3 5 mph 1009.4mb 60f 58f
3:00am 2 3 mph 1009.4mb 60f 57f
2:36am 2
mph
1009.6mb 60f 58f
2:30am  -  3 mph 1009.7mb 60f 58f
2:24am 1 3 mph 1009.6mb 60f 58f
2:18am 2 5 mph 1009.5mb 60f 58f
2:12am 3 5 mph 1009.6mb 60f 58f
2:06am 3 5 mph 1009.7mb 60f 58f
2:00am 2 5 mph 1009.7mb 60f 58f
1:54am 3 6 mph 1009.6mb 60f 58f
1:48am 5 6 mph 1009.6mb 60f 58f
1:36am 5 7 mph 1009.6mb 60f 58f
1:30am 5 6 mph 1009.7mb 60f 58f
1:24am 3 6 mph 1009.7mb 60f 58f
1:18am 3 6 mph 1009.8mb 60f 58f
1:12am 5 6 mph 1009.9mb 60f 58f
1:06am 3 5 mph 1010.1mb 60f 58f
1:00am 3 5 mph 1010.2mb 60f 58f
12:54am 3 5 mph 1010.2mb 60f 58f
12:48am 3 5 mph 1010.3mb 60f 58f
12:36am 5 6 mph 1010.4mb 60f 58f
12:30am 5 7 mph 1010.5mb 60f 58f
12:24am 6
mph
1010.6mb 60f 58f
12:18am 5 6 mph 1010.7mb 60f 58f
12:12am 5 6 mph 1010.7mb 60f 58f
12:06am 5 7 mph 1010.8mb 60f 58f
12:00am 5 6 mph 1010.8mb 60f 58f
Tue 09/16 11:54pm 5 6 mph 1010.7mb 60f 58f
11:48pm 5 6 mph 1010.8mb 60f 58f
11:36pm 5 6 mph 1010.8mb 60f 58f
11:30pm 5 6 mph 1010.8mb 60f 58f
11:24pm 5 6 mph 1010.9mb 60f 58f
11:18pm 5 6 mph 1010.9mb 60f 58f
11:12pm 5
mph
1010.9mb 60f 59f
11:06pm 3 5 mph 1010.9mb 60f 59f
11:00pm 5 6 mph 1011mb 60f 59f
10:54pm 5 6 mph 1011mb 60f 59f
10:48pm 5 6 mph 1011.1mb 60f 59f
10:36pm 2 3 mph 1011.1mb 60f 59f
10:30pm 2 3 mph 1011.2mb 60f 60f
10:24pm 2 3 mph 1011.3mb 60f 60f
10:18pm 2 3 mph 1011.3mb 60f 60f
10:12pm 2 3 mph 1011.3mb 60f 60f
10:06pm 3
mph
1011.3mb 60f 60f
10:00pm 2 3 mph 1011.2mb 60f 60f
9:54pm 2 3 mph 1011.2mb 60f 60f
9:48pm 2
mph
1011.2mb 60f 60f
9:36pm  -  2 mph 1011.4mb 60f 60f
9:30pm  -  2 mph 1011.4mb 59f 60f
9:24pm 2 6 mph 1011.4mb 60f 60f
9:18pm 1 2 mph 1011.4mb 60f 60f
9:12pm 2 6 mph 1011.4mb 60f 60f
9:06pm 1 3 mph 1011.4mb 59f 60f
9:00pm 3
mph
1011.3mb 59f 60f
8:54pm 1 3 mph 1011.3mb 59f 60f
8:48pm 3 6 mph 1011.4mb 59f 60f
8:36pm 2 5 mph 1011.4mb 59f 60f
8:30pm 2 5 mph 1011.5mb 59f 60f
8:24pm 2 5 mph 1011.4mb 59f 60f
8:18pm 2 5 mph 1011.4mb 59f 60f
8:12pm 3 5 mph 1011.4mb 59f 60f
8:06pm 5 6 mph 1011.4mb 59f 60f
8:00pm 2 7 mph 1011.5mb 60f 60f
7:54pm 3 6 mph 1011.5mb 60f 60f
7:48pm 3 5 mph 1011.4mb 60f 60f
7:36pm 1 3 mph 1011.4mb 60f 60f
7:30pm 2 5 mph 1011.4mb 60f 60f
7:24pm 2 5 mph 1011.4mb 60f 60f
7:18pm 1 3 mph 1011.5mb 60f 60f
7:12pm 2 5 mph 1011.6mb 60f 60f
7:06pm 3 5 mph 1011.6mb 59f 60f
7:00pm 5 6 mph 1011.7mb 59f 60f
6:54pm 3 7 mph 1011.7mb 59f 60f
6:48pm 6 10 mph 1011.8mb 59f 60f
6:36pm 6 9 mph 1011.8mb 59f 60f
6:30pm 6 9 mph 1011.8mb 59f 60f
6:24pm 5 9 mph 1011.8mb 59f 60f
6:18pm 6 9 mph 1011.8mb 59f 61f
6:12pm 6 9 mph 1011.8mb 59f 61f
6:06pm 6 8 mph 1011.8mb 59f 61f
6:00pm 5 8 mph 1011.7mb 59f 61f
5:54pm 6 8 mph 1011.7mb 59f 61f
5:48pm 2 6 mph 1011.8mb 59f 61f
5:36pm 5 7 mph 1011.9mb 59f 61f
5:30pm 5 9 mph 1012mb 59f 61f
5:24pm 5 9 mph 1012mb 59f 61f
5:18pm 6 11 mph 1012mb 59f 61f
5:12pm 5 8 mph 1012.1mb 59f 61f
5:06pm 6 10 mph 1012mb 59f 61f
5:00pm 5 10 mph 1012.1mb 59f 61f
4:54pm 6 9 mph 1012.2mb 59f 61f
4:48pm 8 11 mph 1012.2mb 59f 61f
4:36pm 9 13 mph 1012.2mb 59f 62f
4:30pm 7 9 mph 1012.3mb 59f 62f
4:24pm 5 8 mph 1012.3mb 59f 62f
4:18pm 6 9 mph 1012.3mb 59f 61f
4:12pm 8 11 mph 1012.4mb 59f 61f
4:06pm 9 15 mph 1012.4mb 59f 61f
4:00pm 9 13 mph 1012.4mb 59f 61f
3:54pm 10 13 mph 1012.4mb 59f 61f
3:48pm 9 14 mph 1012.5mb 59f 61f
3:36pm 9 15 mph 1012.5mb 59f 61f
3:30pm 9 14 mph 1012.5mb 59f 61f
3:24pm 10 15 mph 1012.5mb 59f 61f
3:18pm 10 16 mph 1012.4mb 59f 61f
3:12pm 7 10 mph 1012.5mb 59f 61f
3:06pm 9 14 mph 1012.5mb 59f 61f
3:00pm 9 13 mph 1012.5mb 59f 61f
2:54pm 11 16 mph 1012.6mb 59f 61f
2:48pm 8 11 mph 1012.7mb 59f 61f
2:36pm 10 15 mph 1012.7mb 59f 61f
2:30pm 10 15 mph 1012.7mb 59f 61f
2:24pm 10 15 mph 1012.7mb 59f 61f
2:18pm 10 14 mph 1012.7mb 59f 61f
2:12pm 10 15 mph 1012.7mb 59f 61f
2:06pm 10 15 mph 1012.8mb 59f 61f
2:00pm 10 14 mph 1012.8mb 59f 62f
1:54pm 9 11 mph 1012.8mb 59f 62f
1:48pm 9 13 mph 1012.7mb 59f 62f
1:36pm 8 11 mph 1012.7mb 59f 61f
1:30pm 8 13 mph 1012.7mb 59f 61f
1:24pm 9 11 mph 1012.7mb 59f 61f
1:18pm 9 14 mph 1012.7mb 59f 61f
1:12pm 8 13 mph 1012.7mb 59f 61f
1:06pm 10 15 mph 1012.7mb 59f 61f
1:00pm 9 16 mph 1012.7mb 59f 61f
12:54pm 11 15 mph 1012.6mb 59f 61f
12:48pm 11 16 mph 1012.6mb 59f 61f
12:36pm 11 16 mph 1012.7mb 59f 61f
12:30pm 14 18 mph 1012.7mb 60f 62f
12:24pm 10 16 mph 1012.6mb 60f 62f
12:18pm 13 16 mph 1012.6mb 59f 62f
12:12pm 10 16 mph 1012.5mb 59f 62f
12:06pm 10 14 mph 1012.5mb 59f 62f
12:00pm 10 14 mph 1012.5mb 59f 62f
11:54am 8 14 mph 1012.5mb 59f 62f
11:48am 6 15 mph 1012.5mb 59f 62f
11:36am 8 13 mph 1012.5mb 59f 62f
11:30am 8 14 mph 1012.5mb 59f 62f
11:24am 8 15 mph 1012.5mb 59f 61f
11:18am 9 14 mph 1012.5mb 59f 61f
11:12am 10 15 mph 1012.5mb 59f 62f
11:06am 8 13 mph 1012.5mb 59f 61f
11:00am 9 16 mph 1012.5mb 59f 61f
10:54am 11 17 mph 1012.4mb 59f 61f
10:48am 9 16 mph 1012.3mb 59f 61f
10:36am 11 17 mph 1012.3mb 59f 61f
10:30am 10 18 mph 1012.3mb 59f 61f
10:24am 9 16 mph 1012.2mb 59f 61f
10:18am 10 15 mph 1012.2mb 59f 61f
10:12am 8 15 mph 1012.3mb 59f 61f
10:06am 9 16 mph 1012.3mb 59f 60f
10:00am 9 16 mph 1012.3mb 59f 60f
8:36am 7 10 mph 1011.7mb 59f 59f
8:30am 3 9 mph 1011.7mb 59f 59f
8:24am 6 11 mph 1011.7mb 59f 59f
8:18am 7 14 mph 1011.7mb 59f 59f
8:12am 8 13 mph 1011.7mb 59f 59f
8:06am 8 14 mph 1011.7mb 59f 60f
8:00am 7 11 mph 1011.6mb 59f 60f
7:54am 6 11 mph 1011.6mb 59f 60f
7:48am 7 13 mph 1011.6mb 59f 60f
5:36am 5 7 mph - - -
5:30am 5 8 mph - - -
5:24am 5 9 mph - - -
5:18am 5 8 mph - - -
5:12am 7 10 mph - - -
5:06am 6 9 mph - - -
5:00am 7 10 mph - - -
4:54am 3 8 mph - - -
4:48am 5 8 mph - - -
4:36am 3 6 mph 1011.4mb 59f 60f
4:30am 6 11 mph 1011.4mb 59f 60f
4:24am 7 11 mph 1011.5mb 59f 60f
4:18am 6 8 mph 1011.5mb 59f 60f
4:12am 6 11 mph 1011.4mb 59f 60f
4:06am 6 13 mph 1011.5mb 59f 60f
4:00am 6 14 mph 1011.6mb 59f 60f
3:54am 6 11 mph 1011.6mb 59f 60f
3:48am 8 13 mph 1011.5mb 59f 60f
3:36am 7 13 mph 1011.6mb 59f 59f
3:30am 7 13 mph 1011.5mb 59f 60f
3:24am 6 13 mph 1011.6mb 59f 59f
3:18am 10 14 mph 1011.5mb 59f 59f
3:12am 9 11 mph 1011.5mb 59f 59f
3:06am 7 11 mph 1011.6mb 59f 59f
3:00am 7 14 mph 1011.5mb 59f 59f
2:54am 6 15 mph 1011.5mb 59f 59f
2:48am 8 15 mph 1011.5mb 59f 59f
2:36am 9 13 mph 1011.7mb 59f 59f
2:30am 11 15 mph 1011.7mb 59f 59f
2:24am 10 20 mph 1011.6mb 59f 59f
2:18am 14 20 mph 1011.6mb 59f 59f
2:12am 10 20 mph 1011.5mb 59f 59f
2:06am 10 18 mph 1011.5mb 59f 59f
2:00am 13 21 mph 1011.5mb 59f 59f
1:54am 13 22 mph 1011.5mb 59f 59f
1:48am 13 23 mph 1011.4mb 59f 59f
1:36am 11 23 mph 1011.4mb 59f 59f
1:30am 14 21 mph 1011.3mb 59f 59f
1:24am 11 20 mph 1011.3mb 59f 59f
1:18am 10 16 mph 1011.2mb 59f 59f
1:12am 11 14 mph 1011.2mb 59f 59f
1:06am 11 18 mph 1011.1mb 59f 59f
1:00am 13 22 mph 1011mb 59f 59f
12:54am 10 15 mph 1011mb 59f 59f
12:48am 8 15 mph 1011mb 59f 59f
12:36am 9 13 mph 1010.7mb 60f 58f
12:30am 7 9 mph 1010.7mb 60f 58f
12:24am 2 7 mph 1010.7mb 60f 58f
12:18am 3 8 mph 1010.6mb 60f 58f
12:12am 5 8 mph 1010.5mb 59f 58f
12:06am 5 9 mph 1010.5mb 59f 58f
12:00am 7 11 mph 1010.4mb 59f 59f
Mon 09/15 11:54pm 5 10 mph 1010.4mb 59f 59f
11:48pm 6 9 mph 1010.4mb 59f 59f
9:36pm  -  mph 1010mb 58f 61f
9:30pm  -  mph 1009.9mb 58f 61f
9:24pm  -  mph 1009.9mb 58f 61f
9:18pm  -  mph 1010mb 58f 61f
9:12pm  -  mph 1009.9mb 58f 61f
9:06pm  -  mph 1009.9mb 58f 61f
9:00pm  -  mph 1009.9mb 58f 62f
8:54pm  -  mph 1009.8mb 58f 62f
8:48pm  -  mph 1009.8mb 58f 62f
8:36pm  -  mph 1009.7mb - 62f
8:30pm  -  mph 1009.6mb - 60f
8:24pm  -  mph 1009.5mb - 61f
8:18pm  -  mph 1009.3mb - 62f
8:12pm  -  mph 1009.2mb - 62f
8:06pm  -  mph 1009.1mb - 62f
8:00pm  -  mph 1009.1mb - 62f
7:54pm  -  mph 1009mb - 62f
7:48pm  -  mph 1008.9mb - 63f
7:36pm 3
mph
1008.7mb - -
7:30pm 2
mph
1008.6mb - -
7:24pm 2
mph
1008.6mb - -
7:18pm 2
mph
1008.6mb - -
7:12pm 1 2 mph 1008.5mb - -
7:06pm 2 3 mph 1008.5mb - -
7:00pm 3
mph
1008.6mb - -
6:54pm 2 3 mph 1008.6mb - -
6:48pm 2 3 mph 1008.6mb - -
6:36pm 3 5 mph 1008.7mb 58f 65f
6:30pm 5 6 mph 1008.7mb 58f 65f
6:24pm 5
mph
1008.7mb 58f 65f
6:18pm 2 6 mph 1008.7mb 58f 65f
6:12pm 5 7 mph 1008.7mb 58f 66f
6:06pm 6 8 mph 1008.7mb 58f 66f
6:00pm 7 9 mph 1008.7mb 58f 66f
5:54pm 8 9 mph 1008.7mb 58f 66f
5:48pm 7 9 mph 1008.7mb 58f 66f
5:36pm 8 9 mph 1008.8mb 58f 66f
5:30pm 6 8 mph 1008.8mb 58f 66f
5:24pm 6 9 mph 1008.7mb 58f 66f
5:18pm 6 8 mph 1008.7mb 58f 66f
5:12pm 6 9 mph 1008.6mb 58f 66f
5:06pm 6 8 mph 1008.6mb 58f 66f
5:00pm 6 8 mph 1008.7mb 58f 66f
4:54pm 3 7 mph 1008.7mb 58f 66f
4:48pm 3 8 mph 1008.8mb 58f 66f
4:36pm 7 8 mph 1008.8mb 58f 65f
4:30pm 7 9 mph 1008.8mb 58f 65f
4:24pm 6 7 mph 1008.9mb 58f 64f
4:18pm 5 7 mph 1008.9mb 58f 64f
4:12pm 5 7 mph 1008.9mb 58f 64f
4:06pm 6 7 mph 1009mb 58f 64f
4:00pm 6 7 mph 1009mb 58f 64f
3:54pm 5
mph
1009.1mb 58f 64f
3:48pm 3 5 mph 1009.1mb 58f 64f
3:36pm 3 5 mph 1009.2mb 58f 63f
3:30pm 1 3 mph 1009.2mb 58f 63f
3:24pm 3 5 mph 1009.2mb 58f 63f
3:18pm 3 6 mph 1009.3mb 58f 64f
3:12pm 5 6 mph 1009.3mb 58f 64f
3:06pm 5 6 mph 1009.4mb 58f 64f
3:00pm 5 6 mph 1009.4mb 58f 64f
2:54pm 3 6 mph 1009.4mb 58f 64f
2:48pm 6 7 mph 1009.4mb 58f 64f
2:36pm 5 7 mph 1009.5mb 58f 64f
2:30pm 6 7 mph 1009.5mb 58f 64f
2:24pm 3 8 mph 1009.5mb 58f 64f
2:18pm 5 7 mph 1009.6mb 58f 63f
2:12pm 6
mph
1009.6mb 58f 63f
2:06pm 3 5 mph 1009.6mb 58f 62f
2:00pm 3 5 mph 1009.6mb 58f 62f
1:54pm 5 6 mph 1009.5mb 58f 62f
1:48pm 6
mph
1009.6mb 58f 62f
1:36pm 5 6 mph 1009.7mb 58f 62f
1:30pm 6 7 mph 1009.8mb 58f 62f
1:24pm 3 6 mph 1009.8mb 58f 62f
1:18pm 5 6 mph 1009.8mb 58f 62f
1:12pm 3 6 mph 1009.8mb 58f 62f
1:06pm 3 5 mph 1009.8mb 58f 62f
1:00pm 3 6 mph 1009.7mb 58f 61f
12:54pm 6 7 mph 1009.7mb 58f 61f
12:48pm 6 7 mph 1009.7mb 58f 61f
12:36pm 6 7 mph 1009.6mb 58f 61f
12:30pm 6 7 mph 1009.6mb 58f 61f
12:24pm 6 7 mph 1009.6mb 58f 61f
12:18pm 6 7 mph 1009.6mb 58f 61f
12:12pm 6 7 mph 1009.7mb 58f 61f
12:06pm 6 7 mph 1009.7mb 58f 61f
12:00pm 6 7 mph 1009.7mb 58f 61f
11:54am 6 7 mph 1009.7mb 58f 61f
11:48am 5 6 mph 1009.8mb 58f 61f
11:36am 7 8 mph 1009.8mb 58f 61f
11:30am 7 9 mph 1009.8mb 58f 61f
11:24am 7 8 mph 1009.8mb 58f 62f
11:18am 6 9 mph 1009.8mb 58f 63f
11:12am 8
mph
1009.8mb 58f 62f
11:06am 7 9 mph 1009.8mb 58f 63f
11:00am 8 9 mph 1009.8mb 58f 63f
10:54am 8
mph
1009.8mb 58f 62f
10:48am 7 8 mph 1009.9mb 58f 62f
10:36am 6 7 mph 1009.8mb 58f 69f
10:30am 5 7 mph 1009.7mb 58f 68f
10:24am 6 9 mph 1009.7mb 58f 67f
10:18am 7 9 mph 1009.8mb 58f 67f
10:12am 7 10 mph 1009.8mb 58f 66f
10:06am 9 11 mph 1009.9mb 58f 65f
10:00am 9 13 mph 1009.9mb 58f 64f
9:54am 9 11 mph 1009.9mb 58f 63f
9:48am 9 13 mph 1010mb 58f 62f
9:36am 8 13 mph 1010mb 58f 60f
9:30am 10 14 mph 1009.9mb 58f 60f
9:24am 10 14 mph 1010mb 58f 59f
9:18am 10 13 mph 1010mb 58f 58f
9:12am 11 14 mph 1010mb 58f 58f
9:06am 10 14 mph 1010mb 58f 57f
9:00am 10 14 mph 1010mb 58f 56f
8:54am 11 14 mph 1010mb 58f 55f
8:48am 11 14 mph 1010mb 58f 55f
8:36am 11 14 mph 1010.1mb 58f 54f
8:30am 11 13 mph 1010.1mb 58f 53f
8:24am 11 14 mph 1010.1mb 58f 53f
8:18am 11 14 mph 1010.2mb 58f 53f
8:12am 13 15 mph 1010.2mb 58f 53f
8:06am 13 15 mph 1010.2mb 58f 53f
8:00am 13 16 mph 1010.3mb 58f 53f
7:54am 14 15 mph 1010.3mb 58f 53f
7:48am 11 15 mph 1010.4mb 58f 52f
7:36am 13 15 mph 1010.4mb 58f 52f
7:30am 13 15 mph 1010.4mb 58f 52f
7:24am 13 15 mph 1010.4mb 58f 51f
7:18am 13 15 mph 1010.4mb 58f 51f
7:12am 13 15 mph 1010.3mb 58f 51f
7:06am 13 15 mph 1010.3mb 58f 51f
7:00am 11 14 mph 1010.3mb 58f 51f
6:54am 13 14 mph 1010.3mb 58f 51f
6:48am 13 14 mph 1010.2mb 58f 51f
6:36am 13 15 mph 1010.2mb 58f -
6:30am 13 15 mph 1010.2mb 58f -
6:24am 13 14 mph 1010.2mb 58f -
6:18am 11 14 mph 1010.2mb 58f -
6:12am 13 15 mph 1010.1mb 58f -
6:06am 13 14 mph 1010.1mb 58f -
6:00am 11 15 mph 1010.1mb 58f -
5:54am 11 14 mph 1010.1mb 58f -
5:48am 11 14 mph 1010.1mb 58f -
5:36am 11 14 mph 1010mb 58f 53f
5:30am 11 15 mph 1010mb 58f 53f
5:24am 13 15 mph 1010mb 58f 53f
5:18am 11 15 mph 1010.1mb 58f 53f
5:12am 11 14 mph 1010mb 58f 53f
5:06am 13 14 mph 1010mb 58f 53f
5:00am 11 15 mph 1010mb 58f 53f
4:54am 11 15 mph 1010mb 58f 54f
4:48am 11 15 mph 1010mb 58f 53f
4:36am 11 15 mph 1010mb 58f 53f
4:30am 11 15 mph 1010mb 58f 53f
4:24am 11 14 mph 1010mb 58f 53f
4:18am 11 14 mph 1010.1mb 58f 53f
4:12am 11 14 mph 1010.1mb 58f 53f
4:06am 11 14 mph 1010.1mb 58f 53f
4:00am 11 15 mph 1010.1mb 58f 53f
3:54am 11 14 mph 1010.1mb 58f 53f
3:48am 11 15 mph 1010.1mb 58f 53f
3:36am 11 14 mph 1010mb 58f 54f
3:30am 11 14 mph 1010mb 58f 54f
3:24am 11 14 mph 1010mb 58f 54f
3:18am 11 14 mph 1009.9mb 58f 54f
3:12am 11 14 mph 1010mb 58f 53f
3:06am 11 15 mph 1010mb 58f 54f
3:00am 13 15 mph 1010mb 58f 53f
2:54am 11 14 mph 1010mb 58f 54f
2:48am 13 14 mph 1010mb 58f 54f
2:36am 13 14 mph 1010.1mb 58f 54f
2:30am 11 14 mph 1010.1mb 58f 54f
2:24am 11 14 mph 1010.1mb 58f 55f
2:18am 11 14 mph 1010.2mb 58f 55f
2:12am 11 14 mph 1010.2mb 58f 55f
2:06am 10 13 mph 1010.3mb 58f 55f
2:00am 10 13 mph 1010.2mb 58f 55f
1:54am 10 14 mph 1010.2mb 58f 56f
1:48am 13 15 mph 1010.2mb 58f 55f
1:36am 11 14 mph 1010.2mb 58f 55f
1:30am 13 14 mph 1010.1mb 58f 55f
1:24am 13 14 mph 1010.1mb 58f 54f
1:18am 13 15 mph 1010.1mb 58f 55f
1:12am 13 15 mph 1010.1mb 58f 55f
1:06am 13 15 mph 1010.1mb 58f 55f
1:00am 13 14 mph 1010.1mb 58f 55f
12:54am 13 15 mph 1010.1mb 58f 56f
12:48am 13 15 mph 1010.1mb 59f 56f
12:36am 13 15 mph 1010mb 59f 56f
12:30am 13 14 mph 1010mb 59f 56f
12:24am 13 15 mph 1009.9mb 59f 56f
12:18am 13 15 mph 1009.9mb 59f 56f
12:12am 13 16 mph 1009.9mb 59f 56f
12:06am 13 14 mph 1009.8mb 59f 56f
12:00am 13 14 mph 1009.9mb 59f 56f
Sun 09/14 11:54pm 11 14 mph 1009.9mb 60f 56f
11:48pm 11 14 mph 1009.9mb 60f 56f
11:36pm 10 13 mph 1009.9mb 60f 57f
11:30pm 10 13 mph 1009.9mb 60f 57f
11:24pm 10 13 mph 1009.9mb 60f 57f
11:18pm 10 13 mph 1009.9mb 59f 57f
11:12pm 11 13 mph 1009.9mb 59f 57f
11:06pm 11 13 mph 1009.9mb 59f 57f
11:00pm 11 13 mph 1010mb 59f 57f
10:54pm 10 13 mph 1010mb 59f 57f
10:48pm 10 11 mph 1010mb 59f 57f
10:36pm 9 10 mph 1009.9mb 59f 58f
10:30pm 9 10 mph 1009.9mb 58f 56f
10:24pm 6 7 mph 1010mb 58f 56f
10:18pm 5 7 mph 1010mb 58f 56f
10:12pm 2 5 mph 1010mb 58f 56f
10:06pm 1 5 mph 1010mb 58f 57f
10:00pm 3 8 mph 1010mb 58f 57f
9:54pm 5 7 mph 1009.9mb 58f 57f
9:48pm 5 7 mph 1009.9mb 58f 57f
9:36pm 3 7 mph 1009.9mb 58f 58f
9:30pm 6 7 mph 1009.9mb 58f 60f
9:24pm 6 9 mph 1009.9mb 58f 60f
9:18pm 7 8 mph 1009.9mb 58f 57f
9:12pm 5 6 mph 1010mb 58f 57f
9:06pm 5 6 mph 1010mb 58f 58f
9:00pm 5
mph
1010mb 58f 58f
8:54pm 3 5 mph 1010mb 58f 57f
8:48pm 2 3 mph 1010mb 58f 58f
8:36pm 2
mph
1010mb 58f 60f
8:30pm 2 3 mph 1010mb 58f 59f
8:24pm 2 3 mph 1010mb 58f 60f
8:18pm 3 5 mph 1010mb 58f 60f
8:12pm 2
mph
1010.1mb 58f 59f
8:06pm  -  2 mph 1010.1mb 58f 60f
8:00pm 1 2 mph 1010mb 58f 62f
7:54pm  -  3 mph 1010mb 58f 63f
7:48pm 3 5 mph 1010.1mb 58f 63f
7:36pm 5 7 mph 1010.1mb 58f 63f
7:30pm 5 6 mph 1010mb 58f 63f
7:24pm 1 2 mph 1010mb 58f 63f
7:18pm 2 6 mph 1010mb 58f 63f
7:12pm 6 10 mph 1010mb 58f 63f
7:06pm 9 10 mph 1010mb 58f 63f
7:00pm 9 11 mph 1010.1mb 58f 63f
6:54pm 6 9 mph 1010.2mb 58f 63f
6:48pm 7 9 mph 1010.1mb 58f 63f
6:36pm 5 6 mph 1010.2mb 58f 63f
6:30pm 6 8 mph 1010.2mb 58f 64f
6:24pm 6 7 mph 1010.2mb 58f 64f
6:18pm 5 8 mph 1010.2mb 58f 65f
6:12pm 2 5 mph 1010.2mb 58f 65f
6:06pm 2 6 mph 1010.3mb 58f 64f
6:00pm 5 9 mph 1010.3mb 58f 63f
5:54pm 8 9 mph 1010.3mb 58f 63f
5:48pm 7 10 mph 1010.4mb 58f 63f
5:36pm 7 10 mph 1010.5mb 58f 63f
5:30pm 6 9 mph 1010.6mb 58f 63f
5:24pm 6 9 mph 1010.6mb 58f 63f
5:18pm 7 11 mph 1010.5mb 58f 64f
5:12pm 9 11 mph 1010.6mb 58f 63f
5:06pm 9 11 mph 1010.7mb 58f 63f
5:00pm 8 10 mph 1010.7mb 58f 63f
4:54pm 8 9 mph 1010.8mb 58f 63f
4:48pm 8 10 mph 1010.8mb 58f 63f
4:36pm 10 11 mph 1010.8mb 58f 63f
4:30pm 9 10 mph 1010.9mb 58f 63f
4:24pm 8 10 mph 1010.9mb 58f 64f
4:18pm 7 9 mph 1010.9mb 58f 63f
4:12pm 7 8 mph 1011mb 58f 63f
4:06pm 6 7 mph 1011mb 58f 63f
4:00pm 6 7 mph 1011mb 58f 63f
3:54pm 6 8 mph 1011mb 58f 63f
3:48pm 6 7 mph 1011.1mb 58f 63f
3:36pm 6 7 mph 1011.2mb 58f 63f
3:30pm 5 7 mph 1011.2mb 58f 63f
3:24pm 6 8 mph 1011.3mb 58f 63f
3:18pm 5 7 mph 1011.3mb 58f 63f
3:12pm 6 8 mph 1011.4mb 58f 63f
3:06pm 6 8 mph 1011.4mb 58f 63f
3:00pm 7 9 mph 1011.4mb 58f 63f
2:54pm 8 9 mph 1011.5mb 58f 63f
2:48pm 7 9 mph 1011.4mb 57f 62f
2:36pm 6 8 mph 1011.4mb 57f 62f
2:30pm 6 7 mph 1011.5mb 57f 62f
2:24pm 6 8 mph 1011.5mb 57f 62f
2:18pm 6 7 mph 1011.6mb 57f 63f
2:12pm 6 7 mph 1011.6mb 57f 63f
2:06pm 6
mph
1011.6mb 57f 63f
2:00pm 5
mph
1011.7mb 57f 62f
1:54pm 5
mph
1011.7mb 57f 63f
1:48pm 5 6 mph 1011.7mb 57f 62f
1:36pm 5
mph
1011.7mb 57f 62f
1:30pm 5 6 mph 1011.7mb 57f 61f
1:24pm 5 6 mph 1011.7mb 57f 62f
1:18pm 5
mph
1011.8mb 57f 62f
1:12pm 3 5 mph 1011.8mb 57f 62f
1:06pm 5 6 mph 1011.8mb 57f 62f
1:00pm 5 6 mph 1011.8mb 57f 62f
12:54pm 3 5 mph 1011.8mb 57f 62f
12:48pm 3
mph
1011.8mb 57f 62f
12:36pm 2 3 mph 1011.8mb 57f 62f
12:30pm 3
mph
1011.8mb 57f 61f
12:24pm 3
mph
1011.8mb 57f 61f
12:18pm 3
mph
1011.8mb 57f 61f
12:12pm 3 5 mph 1011.8mb 57f 61f
12:06pm 3 5 mph 1011.8mb 57f 61f
12:00pm 3
mph
1011.8mb 57f 61f
11:54am 3
mph
1011.9mb 57f 61f
11:48am 2 3 mph 1011.9mb 57f 61f
11:36am 3 5 mph 1011.9mb 57f 60f
11:30am 3 5 mph 1011.9mb 57f 60f
11:24am 3
mph
1011.9mb 57f 60f
11:18am 2 3 mph 1011.9mb 57f 60f
11:12am 3
mph
1011.8mb 57f 61f
11:06am 3 5 mph 1011.8mb 57f 60f
11:00am 3 5 mph 1011.8mb 57f 60f
10:54am 5 6 mph 1011.7mb 57f 60f
10:48am 6
mph
1011.7mb 57f 61f
10:36am 6 7 mph 1011.7mb 57f 63f
10:30am 5 6 mph 1011.7mb 57f 65f
10:24am 2 5 mph 1011.7mb 57f 66f
10:18am 2 3 mph 1011.7mb 57f 66f
10:12am 2 5 mph 1011.7mb 57f 65f
10:06am 3 6 mph 1011.7mb 57f 64f
10:00am 3 7 mph 1011.7mb 57f 62f
9:54am 6 7 mph 1011.7mb 57f 62f
9:48am 7 8 mph 1011.7mb 57f 60f
9:36am 6 9 mph 1011.7mb 57f 59f
9:30am 7 9 mph 1011.7mb 57f 58f
9:24am 7 9 mph 1011.7mb 57f 58f